Matucana, Peru
Current Conditions -  °F | °C
As of 11:00 PM on Saturday 25 Oct 2014 (Local Time) from SPIM Reporting Station
Clear Clear  
Wind Chill: 17°   Ceiling: Unl
Heat Index: 17°   Visibility: 6mi
Dew Point: 14°   Wind: 15mph
Humidity: 82%   Direction: 150°SSE
Pressure: 30"   Gusts: NA
Location:  11.85°S, 76.4°W
Report Text: SPIM 260400Z 15013KT CAVOK 17/14 Q1016 NOSIG RMK PP000
Loading
Personal Weather Stations






























Interactive Weather Map
Tropical Storm Tracking
New forecast layout! Learn more

10-Day Weather Forecast

Advertisements
Track Severe Weather on mobile